createdAt,value
2019-03-28T00:01:41.114Z,7.70
2019-03-28T00:04:08.776Z,7.70
2019-03-28T00:06:36.474Z,7.70
2019-03-28T00:09:07.769Z,7.70
2019-03-28T00:11:37.336Z,7.70
2019-03-28T00:14:04.886Z,7.70
2019-03-28T00:16:32.652Z,7.70
2019-03-28T00:19:00.229Z,7.70
2019-03-28T00:21:27.956Z,7.70
2019-03-28T00:24:03.483Z,7.80
2019-03-28T00:26:32.047Z,7.80
2019-03-28T00:28:59.768Z,7.70
2019-03-28T00:31:27.349Z,7.70
2019-03-28T00:33:54.971Z,7.80
2019-03-28T00:36:22.656Z,7.80
2019-03-28T00:38:50.329Z,7.70
2019-03-28T00:41:18.077Z,7.70
2019-03-28T00:43:45.598Z,7.70
2019-03-28T00:46:15.057Z,7.70
2019-03-28T00:48:42.781Z,7.70
2019-03-28T00:51:10.477Z,7.70
2019-03-28T00:53:38.064Z,7.70
2019-03-28T00:56:05.770Z,7.60
2019-03-28T00:58:34.182Z,7.60
2019-03-28T01:01:01.828Z,7.60
2019-03-28T01:03:29.593Z,7.50
2019-03-28T01:05:57.264Z,7.60
2019-03-28T01:08:24.739Z,7.60
2019-03-28T01:10:52.289Z,7.50
2019-03-28T01:13:19.880Z,7.50
2019-03-28T01:15:47.331Z,7.50
2019-03-28T01:18:15.082Z,7.50
2019-03-28T01:20:42.512Z,7.50
2019-03-28T01:23:10.045Z,7.50
2019-03-28T01:25:37.498Z,7.50
2019-03-28T01:28:04.987Z,7.40
2019-03-28T01:30:32.651Z,7.40
2019-03-28T01:33:00.340Z,7.30
2019-03-28T01:35:27.801Z,7.30
2019-03-28T01:37:55.517Z,7.40
2019-03-28T01:40:23.098Z,7.40
2019-03-28T01:42:50.800Z,7.30
2019-03-28T01:45:18.420Z,7.30
2019-03-28T01:47:46.123Z,7.30
2019-03-28T01:50:13.718Z,7.20
2019-03-28T01:52:41.336Z,7.20
2019-03-28T01:55:08.796Z,7.20
2019-03-28T01:57:36.215Z,7.20
2019-03-28T02:00:04.110Z,7.20
2019-03-28T02:02:31.619Z,7.20
2019-03-28T02:05:00.333Z,7.20
2019-03-28T02:07:27.855Z,7.20
2019-03-28T02:09:55.320Z,7.20
2019-03-28T02:12:22.911Z,7.10
2019-03-28T02:14:50.547Z,7.00
2019-03-28T02:17:18.156Z,7.00
2019-03-28T02:19:45.706Z,7.00
2019-03-28T02:22:14.582Z,7.00
2019-03-28T02:24:42.186Z,6.90
2019-03-28T02:27:09.737Z,6.90
2019-03-28T02:29:37.252Z,6.90
2019-03-28T02:32:04.890Z,6.80
2019-03-28T02:34:34.500Z,6.80
2019-03-28T02:37:02.168Z,6.80
2019-03-28T02:39:29.852Z,6.80
2019-03-28T02:41:57.603Z,6.70
2019-03-28T02:44:25.216Z,6.70
2019-03-28T02:46:52.832Z,6.60
2019-03-28T02:49:20.686Z,6.60
2019-03-28T02:51:49.332Z,6.50
2019-03-28T02:54:16.903Z,6.60
2019-03-28T02:56:44.730Z,6.60
2019-03-28T02:59:12.254Z,6.60
2019-03-28T03:01:40.486Z,6.50
2019-03-28T03:04:08.327Z,6.50
2019-03-28T03:06:37.753Z,6.50
2019-03-28T03:09:08.461Z,6.50
2019-03-28T03:11:36.068Z,6.50
2019-03-28T03:14:03.834Z,6.60
2019-03-28T03:16:31.508Z,6.50
2019-03-28T03:18:59.758Z,6.50
2019-03-28T03:21:27.510Z,6.50
2019-03-28T03:23:54.961Z,6.40
2019-03-28T03:26:22.563Z,6.40
2019-03-28T03:28:50.084Z,6.50
2019-03-28T03:31:20.872Z,6.40
2019-03-28T03:33:46.929Z,6.30
2019-03-28T03:36:14.400Z,6.20
2019-03-28T03:38:41.957Z,6.20
2019-03-28T03:41:09.504Z,6.20
2019-03-28T03:43:37.097Z,6.20
2019-03-28T03:46:04.573Z,6.30
2019-03-28T03:48:32.189Z,6.30
2019-03-28T03:50:59.652Z,6.40
2019-03-28T03:53:27.226Z,6.40
2019-03-28T03:55:54.926Z,6.40
2019-03-28T03:58:22.446Z,6.30
2019-03-28T04:00:50.097Z,6.20
2019-03-28T04:03:17.733Z,6.20
2019-03-28T04:05:45.308Z,6.20
2019-03-28T04:08:12.930Z,6.30
2019-03-28T04:10:40.936Z,6.30
2019-03-28T04:13:08.581Z,6.30
2019-03-28T04:15:38.298Z,6.30
2019-03-28T04:18:06.062Z,6.30
2019-03-28T04:20:33.716Z,6.30
2019-03-28T04:23:03.872Z,6.20
2019-03-28T04:25:31.731Z,6.20
2019-03-28T04:27:59.325Z,6.20
2019-03-28T04:30:26.972Z,6.20
2019-03-28T04:32:54.421Z,6.10
2019-03-28T04:35:22.105Z,6.10
2019-03-28T04:37:49.665Z,6.10
2019-03-28T04:40:17.220Z,6.00
2019-03-28T04:42:46.011Z,6.00
2019-03-28T04:45:13.762Z,6.00
2019-03-28T04:47:41.323Z,6.00
2019-03-28T04:50:08.961Z,6.00
2019-03-28T04:52:36.692Z,6.00
2019-03-28T04:55:04.974Z,5.90
2019-03-28T04:57:35.284Z,5.80
2019-03-28T05:00:03.298Z,5.80
2019-03-28T05:02:31.463Z,5.80
2019-03-28T05:04:59.264Z,5.80
2019-03-28T05:07:27.017Z,5.90
2019-03-28T05:09:54.527Z,5.80
2019-03-28T05:12:22.095Z,5.90
2019-03-28T05:14:49.692Z,5.90
2019-03-28T05:17:17.306Z,5.90
2019-03-28T05:19:45.031Z,5.90
2019-03-28T05:22:12.782Z,5.90
2019-03-28T05:24:40.403Z,6.00
2019-03-28T05:27:08.369Z,6.10
2019-03-28T05:29:36.072Z,6.10
2019-03-28T05:32:03.836Z,6.10
2019-03-28T05:34:31.296Z,6.10
2019-03-28T05:36:59.012Z,6.10
2019-03-28T05:39:26.750Z,6.10
2019-03-28T05:41:54.241Z,6.10
2019-03-28T05:44:22.017Z,6.20
2019-03-28T05:46:49.686Z,6.10
2019-03-28T05:49:17.361Z,6.10
2019-03-28T05:51:45.097Z,6.20
2019-03-28T05:54:12.747Z,6.20
2019-03-28T05:56:40.378Z,6.20
2019-03-28T05:59:10.997Z,6.20
2019-03-28T06:01:37.547Z,6.30
2019-03-28T06:04:05.144Z,6.20
2019-03-28T06:06:32.755Z,6.30
2019-03-28T06:09:00.810Z,6.30
2019-03-28T06:11:28.606Z,6.30
2019-03-28T06:13:56.356Z,6.40
2019-03-28T06:16:23.943Z,6.40
2019-03-28T06:18:51.635Z,6.40
2019-03-28T06:21:19.303Z,6.50
2019-03-28T06:23:46.896Z,6.50
2019-03-28T06:26:15.545Z,6.60
2019-03-28T06:28:43.217Z,6.70
2019-03-28T06:31:11.148Z,6.80
2019-03-28T06:33:38.661Z,6.80
2019-03-28T06:36:06.119Z,6.80
2019-03-28T06:38:33.628Z,6.80
2019-03-28T06:41:01.112Z,6.90
2019-03-28T06:43:28.636Z,7.00
2019-03-28T06:45:56.298Z,7.10
2019-03-28T06:48:23.829Z,7.20
2019-03-28T06:50:51.352Z,7.30
2019-03-28T06:53:18.927Z,7.20
2019-03-28T06:55:46.466Z,7.30
2019-03-28T06:58:14.041Z,7.40
2019-03-28T07:00:41.576Z,7.50
2019-03-28T07:03:09.475Z,7.50
2019-03-28T07:05:36.948Z,7.60
2019-03-28T07:08:04.576Z,7.70
2019-03-28T07:10:32.294Z,7.70
2019-03-28T07:12:59.875Z,7.80
2019-03-28T07:15:27.565Z,7.80
2019-03-28T07:17:55.394Z,7.80
2019-03-28T07:20:22.949Z,7.90
2019-03-28T07:22:50.623Z,8.10
2019-03-28T07:25:18.175Z,8.20
2019-03-28T07:27:45.702Z,8.30
2019-03-28T07:30:13.992Z,8.30
2019-03-28T07:32:43.433Z,8.30
2019-03-28T07:35:11.201Z,8.40
2019-03-28T07:37:38.792Z,8.40
2019-03-28T07:40:06.982Z,8.40
2019-03-28T07:42:34.559Z,8.40
2019-03-28T07:45:02.937Z,8.50
2019-03-28T07:47:30.578Z,8.50
2019-03-28T07:49:58.134Z,8.60
2019-03-28T07:52:25.729Z,8.70
2019-03-28T07:54:53.407Z,8.80
2019-03-28T07:57:20.980Z,10.60
2019-03-28T07:59:48.607Z,13.30
2019-03-28T08:02:16.220Z,14.90
2019-03-28T08:04:43.817Z,16.30
2019-03-28T08:07:11.445Z,16.70
2019-03-28T08:09:39.454Z,16.40
2019-03-28T08:12:21.384Z,16.50
2019-03-28T08:14:36.425Z,17.40
2019-03-28T08:17:03.861Z,18.20
2019-03-28T08:19:31.383Z,18.70
2019-03-28T08:21:58.928Z,19.60
2019-03-28T08:24:26.370Z,19.60
2019-03-28T08:26:54.364Z,19.10
2019-03-28T08:29:21.945Z,18.30
2019-03-28T08:31:51.346Z,18.30
2019-03-28T08:34:19.124Z,19.10
2019-03-28T08:36:46.847Z,19.00
2019-03-28T08:39:15.168Z,18.30
2019-03-28T08:41:42.662Z,17.60
2019-03-28T08:44:10.755Z,17.30
2019-03-28T08:46:38.531Z,17.20
2019-03-28T08:49:12.163Z,16.60
2019-03-28T08:51:43.742Z,16.50
2019-03-28T08:54:12.280Z,16.30
2019-03-28T08:56:39.783Z,16.10
2019-03-28T08:59:07.410Z,15.90
2019-03-28T09:01:35.070Z,15.60
2019-03-28T09:04:02.549Z,15.50
2019-03-28T09:06:30.276Z,15.30
2019-03-28T09:08:57.757Z,15.20
2019-03-28T09:11:25.318Z,15.00
2019-03-28T09:13:52.917Z,14.90
2019-03-28T09:16:20.595Z,14.80
2019-03-28T09:18:48.120Z,14.70
2019-03-28T09:21:15.588Z,14.60
2019-03-28T09:23:43.249Z,14.40
2019-03-28T09:26:10.794Z,14.20
2019-03-28T09:28:38.383Z,14.10
2019-03-28T09:31:18.915Z,14.00
2019-03-28T09:33:35.329Z,14.00
2019-03-28T09:36:02.824Z,13.90
2019-03-28T09:38:30.401Z,13.80
2019-03-28T09:40:57.860Z,13.80
2019-03-28T09:43:25.461Z,13.90
2019-03-28T09:45:52.891Z,13.90
2019-03-28T09:48:20.401Z,13.80
2019-03-28T09:50:48.025Z,13.90
2019-03-28T09:53:15.561Z,14.00
2019-03-28T09:55:43.192Z,14.00
2019-03-28T09:58:10.817Z,14.10
2019-03-28T10:00:38.292Z,14.10
2019-03-28T10:03:05.792Z,14.00
2019-03-28T10:05:33.421Z,14.00
2019-03-28T10:08:01.044Z,14.10
2019-03-28T10:10:28.533Z,14.10
2019-03-28T10:12:56.166Z,14.20
2019-03-28T10:15:23.798Z,14.30
2019-03-28T10:17:51.260Z,14.40
2019-03-28T10:20:18.838Z,14.50
2019-03-28T10:22:46.348Z,14.60
2019-03-28T10:25:15.846Z,14.80
2019-03-28T10:27:43.406Z,15.10
2019-03-28T10:30:12.095Z,15.40
2019-03-28T10:32:39.625Z,15.40
2019-03-28T10:35:07.341Z,15.50
2019-03-28T10:37:34.942Z,15.40
2019-03-28T10:40:02.629Z,15.20
2019-03-28T10:42:30.311Z,15.20
2019-03-28T10:44:57.907Z,15.10
2019-03-28T10:47:25.498Z,15.10
2019-03-28T10:49:52.998Z,14.90
2019-03-28T10:52:20.613Z,14.80
2019-03-28T10:54:48.266Z,14.70
2019-03-28T10:57:29.505Z,14.70
2019-03-28T10:59:45.185Z,14.70
2019-03-28T11:02:13.197Z,14.70
2019-03-28T11:04:40.917Z,14.60
2019-03-28T11:07:08.834Z,14.70
2019-03-28T11:09:36.756Z,14.70
2019-03-28T11:12:04.602Z,14.80
2019-03-28T11:14:32.504Z,14.80
2019-03-28T11:17:00.310Z,14.90
2019-03-28T11:19:28.813Z,14.90
2019-03-28T11:21:56.639Z,14.80
2019-03-28T11:24:24.565Z,14.90
2019-03-28T11:26:52.323Z,14.90
2019-03-28T11:29:19.999Z,14.90
2019-03-28T11:31:51.423Z,14.90
2019-03-28T11:34:17.237Z,14.90
2019-03-28T11:36:45.061Z,14.90
2019-03-28T11:39:13.513Z,14.80
2019-03-28T11:41:41.283Z,14.80
2019-03-28T11:44:08.837Z,14.80
2019-03-28T11:46:36.379Z,14.80
2019-03-28T11:49:04.117Z,14.90
2019-03-28T11:51:31.670Z,15.00
2019-03-28T11:53:59.386Z,15.20
2019-03-28T11:56:27.362Z,15.40
2019-03-28T11:58:56.917Z,15.50
2019-03-28T12:01:24.630Z,15.50
2019-03-28T12:03:52.284Z,15.50
2019-03-28T12:06:19.968Z,15.50
2019-03-28T12:08:47.497Z,15.60
2019-03-28T12:11:15.034Z,15.60
2019-03-28T12:13:45.161Z,15.50
2019-03-28T12:16:12.051Z,15.50
2019-03-28T12:18:39.557Z,15.50
2019-03-28T12:21:07.378Z,15.40
2019-03-28T12:23:35.002Z,15.30
2019-03-28T12:26:03.054Z,15.30
2019-03-28T12:28:30.610Z,15.40
2019-03-28T12:30:58.092Z,15.50
2019-03-28T12:33:26.070Z,15.50
2019-03-28T12:35:53.777Z,15.60
2019-03-28T12:38:22.363Z,15.70
2019-03-28T12:40:50.660Z,15.70
2019-03-28T12:43:18.347Z,15.70
2019-03-28T12:45:46.042Z,15.80
2019-03-28T12:48:13.529Z,15.80
2019-03-28T12:50:41.061Z,15.90
2019-03-28T12:53:08.757Z,16.00
2019-03-28T12:55:36.416Z,16.10
2019-03-28T12:58:04.063Z,16.10
2019-03-28T13:00:35.813Z,16.10
2019-03-28T13:03:03.282Z,16.10
2019-03-28T13:05:30.750Z,16.10
2019-03-28T13:07:58.430Z,16.10
2019-03-28T13:10:25.948Z,16.10
2019-03-28T13:12:53.614Z,16.10
2019-03-28T13:15:21.203Z,16.00
2019-03-28T13:17:48.765Z,15.80
2019-03-28T13:20:16.429Z,15.80
2019-03-28T13:22:46.027Z,15.70
2019-03-28T13:25:13.564Z,15.70
2019-03-28T13:27:41.307Z,15.60
2019-03-28T13:30:10.843Z,15.50
2019-03-28T13:32:41.929Z,15.60
2019-03-28T13:35:09.124Z,15.60
2019-03-28T13:37:36.855Z,15.60
2019-03-28T13:40:04.714Z,15.50
2019-03-28T13:42:32.342Z,15.40
2019-03-28T13:44:59.997Z,15.60
2019-03-28T13:47:27.515Z,15.80
2019-03-28T13:49:54.973Z,16.00
2019-03-28T13:52:22.818Z,16.20
2019-03-28T13:54:52.931Z,16.30
2019-03-28T13:57:20.046Z,16.30
2019-03-28T13:59:47.671Z,16.20
2019-03-28T14:02:15.136Z,16.10
2019-03-28T14:04:42.834Z,15.90
2019-03-28T14:07:10.326Z,15.80
2019-03-28T14:09:38.266Z,15.70
2019-03-28T14:12:05.838Z,15.60
2019-03-28T14:14:33.496Z,15.60
2019-03-28T14:17:01.185Z,15.50
2019-03-28T14:19:28.833Z,15.50
2019-03-28T14:21:56.758Z,15.50
2019-03-28T14:24:24.428Z,15.60
2019-03-28T14:26:52.610Z,15.60
2019-03-28T14:29:20.280Z,15.60
2019-03-28T14:31:47.895Z,15.60
2019-03-28T14:34:15.543Z,15.60
2019-03-28T14:36:43.122Z,15.70
2019-03-28T14:39:10.799Z,15.60
2019-03-28T14:41:38.552Z,15.60
2019-03-28T14:44:06.013Z,15.60
2019-03-28T14:46:33.581Z,15.60
2019-03-28T14:49:01.287Z,15.60
2019-03-28T14:51:28.940Z,15.50
2019-03-28T14:53:56.483Z,15.40
2019-03-28T14:56:24.628Z,15.40
2019-03-28T14:58:53.869Z,15.40
2019-03-28T15:01:21.377Z,15.40
2019-03-28T15:03:48.843Z,15.40
2019-03-28T15:06:16.442Z,15.30
2019-03-28T15:08:44.055Z,15.20
2019-03-28T15:11:11.524Z,15.20
2019-03-28T15:13:40.582Z,15.20
2019-03-28T15:16:08.272Z,15.20
2019-03-28T15:18:37.045Z,15.20
2019-03-28T15:21:04.667Z,15.20
2019-03-28T15:23:32.376Z,15.20
2019-03-28T15:26:00.001Z,15.10
2019-03-28T15:28:27.675Z,15.10
2019-03-28T15:30:55.790Z,15.10
2019-03-28T15:33:38.387Z,15.10
2019-03-28T15:35:54.917Z,15.00
2019-03-28T15:38:22.515Z,15.00
2019-03-28T15:40:50.043Z,15.00
2019-03-28T15:43:17.589Z,15.00
2019-03-28T15:45:45.160Z,14.90
2019-03-28T15:48:12.639Z,14.90
2019-03-28T15:50:40.177Z,14.90
2019-03-28T15:53:07.711Z,14.90
2019-03-28T15:55:35.269Z,14.90
2019-03-28T15:58:02.857Z,14.90
2019-03-28T16:00:30.341Z,14.90
2019-03-28T16:02:57.871Z,14.90
2019-03-28T16:05:25.412Z,14.90
2019-03-28T16:07:53.077Z,14.80
2019-03-28T16:10:20.813Z,14.80
2019-03-28T16:12:48.369Z,14.80
2019-03-28T16:15:15.928Z,14.80
2019-03-28T16:17:43.727Z,14.80
2019-03-28T16:20:11.696Z,14.70
2019-03-28T16:22:39.319Z,14.70
2019-03-28T16:25:06.953Z,14.70
2019-03-28T16:27:34.501Z,14.70
2019-03-28T16:30:02.280Z,14.80
2019-03-28T16:32:29.969Z,14.80
2019-03-28T16:34:57.583Z,14.70
2019-03-28T16:37:25.183Z,14.70
2019-03-28T16:39:53.105Z,14.70
2019-03-28T16:42:26.732Z,14.70
2019-03-28T16:44:55.270Z,14.70
2019-03-28T16:47:23.174Z,14.70
2019-03-28T16:49:51.501Z,14.60
2019-03-28T16:52:19.142Z,14.60
2019-03-28T16:54:46.642Z,14.60
2019-03-28T16:57:14.191Z,14.60
2019-03-28T16:59:41.762Z,14.60
2019-03-28T17:02:09.260Z,14.60
2019-03-28T17:04:36.888Z,14.60
2019-03-28T17:07:05.453Z,14.60
2019-03-28T17:09:33.592Z,14.50
2019-03-28T17:12:01.214Z,14.50
2019-03-28T17:14:28.681Z,14.50
2019-03-28T17:16:56.300Z,14.50
2019-03-28T17:19:23.840Z,14.40
2019-03-28T17:21:51.399Z,14.40
2019-03-28T17:24:19.246Z,14.40
2019-03-28T17:26:46.908Z,14.30
2019-03-28T17:29:14.441Z,14.20
2019-03-28T17:31:43.071Z,14.30
2019-03-28T17:34:10.602Z,14.20
2019-03-28T17:36:38.149Z,14.20
2019-03-28T17:39:06.524Z,14.20
2019-03-28T17:41:34.204Z,14.10
2019-03-28T17:44:01.844Z,14.20
2019-03-28T17:46:29.958Z,14.10
2019-03-28T17:48:59.582Z,14.10
2019-03-28T17:51:27.299Z,14.10
2019-03-28T17:53:56.205Z,14.10
2019-03-28T17:56:24.001Z,14.10
2019-03-28T17:58:51.975Z,14.00
2019-03-28T18:01:19.593Z,14.00
2019-03-28T18:03:47.151Z,14.00
2019-03-28T18:06:14.732Z,14.00
2019-03-28T18:08:42.652Z,14.00
2019-03-28T18:11:10.794Z,14.00
2019-03-28T18:13:38.395Z,13.90
2019-03-28T18:16:06.075Z,13.90
2019-03-28T18:18:37.199Z,13.90
2019-03-28T18:21:05.226Z,13.90
2019-03-28T18:23:33.162Z,13.80
2019-03-28T18:26:00.687Z,13.80
2019-03-28T18:28:31.341Z,13.70
2019-03-28T18:30:58.787Z,13.70
2019-03-28T18:33:29.224Z,13.70
2019-03-28T18:35:57.295Z,13.60
2019-03-28T18:38:25.402Z,13.60
2019-03-28T18:40:53.175Z,13.50
2019-03-28T18:43:21.145Z,13.50
2019-03-28T18:45:48.992Z,13.40
2019-03-28T18:48:27.328Z,13.50
2019-03-28T18:50:49.504Z,13.40
2019-03-28T18:53:17.366Z,13.40
2019-03-28T18:55:45.312Z,13.40
2019-03-28T18:58:12.975Z,13.40
2019-03-28T19:00:40.887Z,13.40
2019-03-28T19:03:10.457Z,13.40
2019-03-28T19:05:38.128Z,13.30
2019-03-28T19:08:06.615Z,13.30
2019-03-28T19:10:34.197Z,13.40
2019-03-28T19:13:04.475Z,13.40
2019-03-28T19:15:31.461Z,13.40
2019-03-28T19:17:59.693Z,13.40
2019-03-28T19:20:32.898Z,13.40
2019-03-28T19:22:58.925Z,13.40
2019-03-28T19:25:26.481Z,13.40
2019-03-28T19:27:54.106Z,13.40
2019-03-28T19:30:46.993Z,13.40
2019-03-28T19:33:14.909Z,13.40
2019-03-28T19:35:43.744Z,13.40
2019-03-28T19:38:11.286Z,13.40
2019-03-28T19:40:39.557Z,13.40
2019-03-28T19:43:19.731Z,13.40
2019-03-28T19:45:37.077Z,13.40
2019-03-28T19:48:06.467Z,13.50
2019-03-28T19:50:34.572Z,13.50
2019-03-28T19:53:02.554Z,13.50
2019-03-28T19:55:30.542Z,13.40
2019-03-28T19:57:58.594Z,13.50
2019-03-28T20:00:26.197Z,13.40
2019-03-28T20:02:53.807Z,13.40
2019-03-28T20:05:21.360Z,13.40
2019-03-28T20:07:50.069Z,13.40
2019-03-28T20:10:18.648Z,13.30
2019-03-28T20:12:46.617Z,13.30
2019-03-28T20:15:14.367Z,13.30
2019-03-28T20:17:41.921Z,13.30
2019-03-28T20:20:09.535Z,13.30
2019-03-28T20:22:37.171Z,13.20
2019-03-28T20:25:05.034Z,13.20
2019-03-28T20:27:32.977Z,13.20
2019-03-28T20:30:01.238Z,13.20
2019-03-28T20:32:29.296Z,13.20
2019-03-28T20:34:56.801Z,13.10
2019-03-28T20:37:24.367Z,13.10
2019-03-28T20:39:52.139Z,13.10
2019-03-28T20:42:21.958Z,13.10
2019-03-28T20:44:49.633Z,13.00
2019-03-28T20:47:17.314Z,13.00
2019-03-28T20:49:46.679Z,13.00
2019-03-28T20:52:14.778Z,13.00
2019-03-28T20:54:42.371Z,13.00
2019-03-28T20:57:10.201Z,12.90
2019-03-28T20:59:37.921Z,12.90
2019-03-28T21:02:05.375Z,12.90
2019-03-28T21:04:34.737Z,12.80
2019-03-28T21:07:02.814Z,12.80
2019-03-28T21:09:30.890Z,12.70
2019-03-28T21:11:59.371Z,12.70
2019-03-28T21:14:27.922Z,12.70
2019-03-28T21:16:58.302Z,12.60
2019-03-28T21:19:28.779Z,12.50
2019-03-28T21:22:00.636Z,12.40
2019-03-28T21:24:28.305Z,12.30
2019-03-28T21:26:56.030Z,12.30
2019-03-28T21:29:24.007Z,12.20
2019-03-28T21:31:52.101Z,12.20
2019-03-28T21:34:21.147Z,12.10
2019-03-28T21:36:49.162Z,12.10
2019-03-28T21:39:16.901Z,12.00
2019-03-28T21:41:47.074Z,12.00
2019-03-28T21:44:14.795Z,11.90
2019-03-28T21:46:42.921Z,11.90
2019-03-28T21:49:10.784Z,11.80
2019-03-28T21:51:38.432Z,11.80
2019-03-28T21:54:07.171Z,11.70
2019-03-28T21:56:34.869Z,11.60
2019-03-28T21:59:02.689Z,11.60
2019-03-28T22:01:32.716Z,11.50
2019-03-28T22:04:00.734Z,11.40
2019-03-28T22:06:42.049Z,11.40
2019-03-28T22:08:58.862Z,11.40
2019-03-28T22:11:27.006Z,11.40
2019-03-28T22:13:55.017Z,11.20
2019-03-28T22:16:24.251Z,11.20
2019-03-28T22:18:53.472Z,11.20
2019-03-28T22:21:21.340Z,11.10
2019-03-28T22:23:49.416Z,11.10
2019-03-28T22:26:17.415Z,11.00
2019-03-28T22:28:45.230Z,11.00
2019-03-28T22:31:14.684Z,10.90
2019-03-28T22:33:42.663Z,10.90
2019-03-28T22:36:10.390Z,10.80
2019-03-28T22:38:38.344Z,10.80
2019-03-28T22:41:09.052Z,10.70
2019-03-28T22:43:38.733Z,10.70
2019-03-28T22:46:06.350Z,10.60
2019-03-28T22:48:34.264Z,10.60
2019-03-28T22:51:02.000Z,10.60
2019-03-28T22:53:30.104Z,10.60
2019-03-28T22:55:58.883Z,10.60
2019-03-28T22:58:26.572Z,10.50
2019-03-28T23:00:55.345Z,10.50
2019-03-28T23:03:23.122Z,10.40
2019-03-28T23:05:50.918Z,10.40
2019-03-28T23:08:18.816Z,10.40
2019-03-28T23:10:47.948Z,10.30
2019-03-28T23:13:15.863Z,10.30
2019-03-28T23:15:43.695Z,10.20
2019-03-28T23:18:11.390Z,10.20
2019-03-28T23:20:39.283Z,10.10
2019-03-28T23:23:06.902Z,10.10
2019-03-28T23:25:34.754Z,10.10
2019-03-28T23:28:02.639Z,10.00
2019-03-28T23:30:35.369Z,10.00
2019-03-28T23:33:03.129Z,10.00
2019-03-28T23:35:31.006Z,9.90
2019-03-28T23:37:58.759Z,9.90
2019-03-28T23:40:26.638Z,9.90
2019-03-28T23:42:54.447Z,9.90
2019-03-28T23:45:22.071Z,9.80
2019-03-28T23:47:49.960Z,9.80
2019-03-28T23:50:17.936Z,9.80
2019-03-28T23:52:45.523Z,9.70
2019-03-28T23:55:13.703Z,9.70
2019-03-28T23:57:41.388Z,9.60
